createdAt,value
2022-12-27T00:01:12.334Z,99.90
2022-12-27T00:03:40.937Z,99.90
2022-12-27T00:06:10.666Z,99.90
2022-12-27T00:08:40.147Z,99.90
2022-12-27T00:11:11.877Z,99.90
2022-12-27T00:13:40.173Z,99.30
2022-12-27T00:16:11.020Z,97.60
2022-12-27T00:18:40.071Z,96.40
2022-12-27T00:21:09.732Z,96.60
2022-12-27T00:23:41.611Z,96.60
2022-12-27T00:26:12.329Z,96.30
2022-12-27T00:28:40.383Z,95.70
2022-12-27T00:31:09.617Z,96.20
2022-12-27T00:33:39.035Z,96.80
2022-12-27T00:36:10.016Z,96.50
2022-12-27T00:38:38.135Z,96.20
2022-12-27T00:41:08.360Z,95.80
2022-12-27T00:43:36.840Z,95.90
2022-12-27T00:46:05.627Z,96.20
2022-12-27T00:48:34.004Z,96.50
2022-12-27T00:51:04.792Z,96.90
2022-12-27T00:53:33.894Z,97.20
2022-12-27T00:56:02.046Z,97.80
2022-12-27T00:58:32.302Z,97.70
2022-12-27T01:01:07.811Z,98.00
2022-12-27T01:03:36.057Z,97.60
2022-12-27T01:06:08.077Z,97.80
2022-12-27T01:08:36.621Z,97.60
2022-12-27T01:11:05.867Z,97.40
2022-12-27T01:13:36.200Z,97.50
2022-12-27T01:16:10.193Z,97.40
2022-12-27T01:18:38.689Z,97.20
2022-12-27T01:21:07.943Z,96.90
2022-12-27T01:23:36.635Z,96.80
2022-12-27T01:26:06.428Z,95.90
2022-12-27T01:28:36.367Z,95.80
2022-12-27T01:31:07.037Z,95.90
2022-12-27T01:33:35.310Z,95.50
2022-12-27T01:36:10.614Z,95.50
2022-12-27T01:38:38.690Z,95.40
2022-12-27T01:41:26.854Z,95.50
2022-12-27T01:43:55.383Z,95.30
2022-12-27T01:46:23.896Z,95.40
2022-12-27T01:48:52.429Z,94.80
2022-12-27T01:51:20.600Z,94.90
2022-12-27T01:53:50.926Z,94.20
2022-12-27T01:56:25.177Z,94.30
2022-12-27T01:58:58.613Z,94.70
2022-12-27T02:01:30.765Z,94.80
2022-12-27T02:04:02.757Z,95.10
2022-12-27T02:06:32.259Z,95.50
2022-12-27T02:09:08.049Z,95.90
2022-12-27T02:11:52.473Z,96.30
2022-12-27T02:14:28.144Z,96.20
2022-12-27T02:16:58.373Z,96.70
2022-12-27T02:19:37.450Z,96.80
2022-12-27T02:22:56.289Z,96.60
2022-12-27T02:25:42.275Z,96.10
2022-12-27T02:28:26.479Z,95.70
2022-12-27T02:31:00.646Z,95.40
2022-12-27T02:33:34.139Z,95.20
2022-12-27T02:36:05.468Z,95.30
2022-12-27T02:38:37.218Z,95.40
2022-12-27T02:41:26.826Z,95.30
2022-12-27T02:44:14.008Z,95.40
2022-12-27T02:47:01.518Z,95.00
2022-12-27T02:49:50.089Z,94.80
2022-12-27T02:52:47.109Z,95.20
2022-12-27T02:55:31.446Z,95.10
2022-12-27T02:58:10.891Z,95.70
2022-12-27T03:01:05.177Z,95.80
2022-12-27T03:03:48.647Z,95.90
2022-12-27T03:06:42.189Z,95.90
2022-12-27T03:09:46.977Z,95.60
2022-12-27T03:12:43.142Z,95.60
2022-12-27T03:15:39.705Z,95.60
2022-12-27T03:18:11.703Z,95.10
2022-12-27T03:21:01.380Z,95.40
2022-12-27T03:23:47.588Z,94.80
2022-12-27T03:26:18.431Z,94.60
2022-12-27T03:29:05.292Z,94.20
2022-12-27T03:31:54.501Z,94.00
2022-12-27T03:34:38.261Z,93.40
2022-12-27T03:37:30.938Z,92.90
2022-12-27T03:40:08.206Z,92.80
2022-12-27T03:42:58.377Z,92.50
2022-12-27T03:45:47.483Z,92.50
2022-12-27T03:48:23.252Z,92.10
2022-12-27T03:50:55.808Z,92.30
2022-12-27T03:53:31.901Z,92.40
2022-12-27T03:56:00.239Z,92.50
2022-12-27T03:58:29.075Z,92.70
2022-12-27T04:00:57.117Z,93.00
2022-12-27T04:03:26.060Z,93.20
2022-12-27T04:05:54.123Z,93.20
2022-12-27T04:08:39.459Z,93.30
2022-12-27T04:11:26.523Z,93.60
2022-12-27T04:14:12.033Z,93.80
2022-12-27T04:16:57.872Z,93.70
2022-12-27T04:19:43.232Z,93.90
2022-12-27T04:22:28.929Z,94.30
2022-12-27T04:25:14.415Z,94.30
2022-12-27T04:28:01.198Z,94.30
2022-12-27T04:30:46.776Z,94.60
2022-12-27T04:33:32.238Z,94.60
2022-12-27T04:36:05.827Z,94.70
2022-12-27T04:38:34.434Z,94.70
2022-12-27T04:41:20.368Z,94.40
2022-12-27T04:44:07.527Z,94.20
2022-12-27T04:46:53.543Z,94.20
2022-12-27T04:49:42.001Z,94.40
2022-12-27T04:52:32.913Z,94.20
2022-12-27T04:55:06.771Z,94.40
2022-12-27T04:57:34.913Z,94.20
2022-12-27T05:00:23.719Z,94.20
2022-12-27T05:02:52.146Z,93.70
2022-12-27T05:05:20.488Z,93.30
2022-12-27T05:08:06.616Z,92.50
2022-12-27T05:11:00.489Z,92.10
2022-12-27T05:13:46.193Z,91.90
2022-12-27T05:16:16.095Z,91.90
2022-12-27T05:18:44.451Z,91.80
2022-12-27T05:21:12.432Z,92.30
2022-12-27T05:24:04.958Z,92.30
2022-12-27T05:26:34.439Z,92.40
2022-12-27T05:29:03.367Z,92.70
2022-12-27T05:31:33.682Z,93.10
2022-12-27T05:34:01.859Z,93.50
2022-12-27T05:36:30.042Z,93.70
2022-12-27T05:38:59.369Z,94.60
2022-12-27T05:41:27.394Z,94.80
2022-12-27T05:43:55.425Z,95.10
2022-12-27T05:46:23.588Z,95.40
2022-12-27T05:48:53.093Z,95.70
2022-12-27T05:51:22.454Z,95.80
2022-12-27T05:53:50.603Z,95.70
2022-12-27T05:56:21.619Z,95.60
2022-12-27T05:58:53.279Z,95.70
2022-12-27T06:01:21.678Z,95.80
2022-12-27T06:03:49.653Z,96.00
2022-12-27T06:06:19.125Z,96.30
2022-12-27T06:08:47.214Z,96.10
2022-12-27T06:11:17.875Z,96.20
2022-12-27T06:13:51.565Z,96.00
2022-12-27T06:16:20.825Z,95.60
2022-12-27T06:18:49.081Z,95.30
2022-12-27T06:21:20.873Z,95.40
2022-12-27T06:23:50.264Z,95.20
2022-12-27T06:26:20.974Z,95.10
2022-12-27T06:28:49.941Z,94.90
2022-12-27T06:31:19.145Z,94.70
2022-12-27T06:33:47.894Z,94.60
2022-12-27T06:36:18.783Z,94.50
2022-12-27T06:38:46.941Z,94.60
2022-12-27T06:41:17.228Z,94.50
2022-12-27T06:43:45.682Z,94.50
2022-12-27T06:46:17.539Z,94.60
2022-12-27T06:48:46.602Z,94.60
2022-12-27T06:51:16.208Z,94.70
2022-12-27T06:53:48.567Z,94.70
2022-12-27T06:56:19.051Z,94.70
2022-12-27T06:58:47.917Z,94.80
2022-12-27T07:01:18.640Z,95.00
2022-12-27T07:03:50.423Z,95.20
2022-12-27T07:06:19.009Z,95.50
2022-12-27T07:08:48.872Z,95.80
2022-12-27T07:11:17.818Z,96.20
2022-12-27T07:13:48.219Z,96.40
2022-12-27T07:16:18.944Z,96.40
2022-12-27T07:18:49.850Z,96.50
2022-12-27T07:21:20.483Z,96.60
2022-12-27T07:23:50.359Z,96.60
2022-12-27T07:26:20.279Z,96.70
2022-12-27T07:28:48.706Z,96.90
2022-12-27T07:31:18.242Z,96.90
2022-12-27T07:33:46.682Z,96.50
2022-12-27T07:36:18.017Z,96.70
2022-12-27T07:38:46.666Z,96.90
2022-12-27T07:41:16.588Z,97.00
2022-12-27T07:43:44.932Z,97.30
2022-12-27T07:46:15.554Z,97.40
2022-12-27T07:48:44.133Z,97.60
2022-12-27T07:51:13.368Z,97.80
2022-12-27T07:53:41.730Z,98.10
2022-12-27T07:56:11.104Z,98.20
2022-12-27T07:58:42.513Z,98.20
2022-12-27T08:01:11.783Z,98.30
2022-12-27T08:03:40.905Z,98.40
2022-12-27T08:06:17.792Z,98.40
2022-12-27T08:08:46.472Z,98.20
2022-12-27T08:11:14.766Z,98.30
2022-12-27T08:13:44.211Z,98.40
2022-12-27T08:16:18.240Z,98.40
2022-12-27T08:18:46.567Z,98.60
2022-12-27T08:21:14.954Z,98.60
2022-12-27T08:23:43.072Z,98.70
2022-12-27T08:26:11.585Z,98.40
2022-12-27T08:28:40.077Z,98.30
2022-12-27T08:31:11.172Z,98.40
2022-12-27T08:33:41.661Z,98.10
2022-12-27T08:36:45.202Z,98.20
2022-12-27T08:39:00.897Z,98.20
2022-12-27T08:41:29.260Z,98.30
2022-12-27T08:43:57.317Z,98.20
2022-12-27T08:46:26.856Z,98.40
2022-12-27T08:48:54.891Z,98.30
2022-12-27T08:51:31.645Z,98.10
2022-12-27T08:54:06.927Z,97.90
2022-12-27T08:56:35.113Z,98.00
2022-12-27T08:59:04.151Z,97.80
2022-12-27T09:01:33.882Z,97.70
2022-12-27T09:04:01.933Z,97.60
2022-12-27T09:06:29.977Z,97.40
2022-12-27T09:08:58.153Z,97.50
2022-12-27T09:11:27.743Z,97.20
2022-12-27T09:13:56.399Z,97.50
2022-12-27T09:16:27.514Z,97.30
2022-12-27T09:18:58.981Z,97.20
2022-12-27T09:21:29.712Z,97.20
2022-12-27T09:23:57.807Z,97.20
2022-12-27T09:26:29.136Z,97.20
2022-12-27T09:28:58.409Z,96.90
2022-12-27T09:31:27.140Z,96.70
2022-12-27T09:33:56.854Z,96.70
2022-12-27T09:36:27.124Z,96.70
2022-12-27T09:38:57.068Z,96.50
2022-12-27T09:42:43.792Z,96.70
2022-12-27T09:44:34.048Z,96.70
2022-12-27T09:47:07.002Z,96.50
2022-12-27T09:49:39.138Z,96.50
2022-12-27T09:52:13.621Z,96.60
2022-12-27T09:55:04.430Z,96.40
2022-12-27T09:57:37.914Z,96.60
2022-12-27T10:00:14.593Z,96.70
2022-12-27T10:02:44.427Z,96.80
2022-12-27T10:05:22.589Z,96.80
2022-12-27T10:08:11.546Z,96.90
2022-12-27T10:10:45.348Z,97.10
2022-12-27T10:13:28.054Z,97.10
2022-12-27T10:16:08.950Z,97.00
2022-12-27T10:18:45.907Z,97.00
2022-12-27T10:21:21.197Z,96.80
2022-12-27T10:23:55.876Z,96.80
2022-12-27T10:26:25.055Z,96.80
2022-12-27T10:28:57.696Z,96.60
2022-12-27T10:31:26.617Z,96.70
2022-12-27T10:33:55.255Z,96.70
2022-12-27T10:36:26.984Z,96.70
2022-12-27T10:38:55.981Z,96.60
2022-12-27T10:41:37.322Z,96.50
2022-12-27T10:44:11.741Z,96.60
2022-12-27T10:46:42.407Z,95.90
2022-12-27T10:49:24.536Z,95.80
2022-12-27T10:51:56.938Z,95.80
2022-12-27T10:54:26.666Z,95.90
2022-12-27T10:56:56.036Z,96.20
2022-12-27T10:59:25.961Z,96.20
2022-12-27T11:02:17.493Z,96.10
2022-12-27T11:05:00.416Z,96.10
2022-12-27T11:07:35.363Z,96.00
2022-12-27T11:10:15.339Z,95.80
2022-12-27T11:12:56.924Z,93.80
2022-12-27T11:15:25.472Z,93.20
2022-12-27T11:17:56.746Z,92.70
2022-12-27T11:20:28.997Z,91.40
2022-12-27T11:23:00.635Z,90.30
2022-12-27T11:25:30.283Z,89.50
2022-12-27T11:28:04.070Z,88.30
2022-12-27T11:30:35.430Z,87.70
2022-12-27T11:33:05.903Z,87.70
2022-12-27T11:35:46.607Z,87.60
2022-12-27T11:38:25.560Z,88.80
2022-12-27T11:41:00.851Z,88.00
2022-12-27T11:43:33.432Z,86.60
2022-12-27T11:46:04.239Z,86.40
2022-12-27T11:48:36.773Z,86.40
2022-12-27T11:51:31.014Z,86.00
2022-12-27T11:54:15.414Z,83.70
2022-12-27T11:56:46.225Z,83.80
2022-12-27T11:59:33.355Z,83.20
2022-12-27T12:02:18.999Z,84.10
2022-12-27T12:05:12.368Z,83.80
2022-12-27T12:08:04.013Z,81.30
2022-12-27T12:10:44.250Z,81.10
2022-12-27T12:13:46.593Z,81.00
2022-12-27T12:16:40.715Z,82.50
2022-12-27T12:19:30.207Z,82.20
2022-12-27T12:22:13.890Z,79.60
2022-12-27T12:25:15.698Z,81.90
2022-12-27T12:28:17.578Z,77.80
2022-12-27T12:31:12.163Z,77.30
2022-12-27T12:33:59.638Z,77.60
2022-12-27T12:36:56.236Z,75.90
2022-12-27T12:39:38.002Z,76.20
2022-12-27T12:42:20.487Z,76.80
2022-12-27T12:45:15.710Z,78.50
2022-12-27T12:48:19.865Z,76.60
2022-12-27T12:51:05.452Z,76.60
2022-12-27T12:53:53.071Z,76.80
2022-12-27T12:56:43.384Z,76.90
2022-12-27T12:59:27.948Z,75.50
2022-12-27T13:02:17.762Z,76.80
2022-12-27T13:05:04.089Z,77.10
2022-12-27T13:07:45.168Z,76.60
2022-12-27T13:10:53.933Z,75.10
2022-12-27T13:13:31.145Z,75.40
2022-12-27T13:16:13.724Z,74.90
2022-12-27T13:18:55.896Z,76.70
2022-12-27T13:21:38.392Z,77.40
2022-12-27T13:24:15.761Z,77.00
2022-12-27T13:26:52.065Z,76.90
2022-12-27T13:29:38.169Z,77.90
2022-12-27T13:32:14.464Z,78.10
2022-12-27T13:34:54.546Z,78.20
2022-12-27T13:37:31.996Z,77.90
2022-12-27T13:40:24.016Z,78.60
2022-12-27T13:43:16.440Z,79.40
2022-12-27T13:45:55.997Z,77.50
2022-12-27T13:48:56.102Z,78.20
2022-12-27T13:51:46.938Z,77.00
2022-12-27T13:54:46.595Z,77.30
2022-12-27T13:57:31.826Z,77.10
2022-12-27T14:00:15.208Z,77.60
2022-12-27T14:03:08.524Z,76.60
2022-12-27T14:06:23.563Z,77.80
2022-12-27T14:09:09.257Z,76.50
2022-12-27T14:11:49.396Z,77.00
2022-12-27T14:14:19.364Z,76.50
2022-12-27T14:16:59.725Z,77.50
2022-12-27T14:19:52.868Z,77.20
2022-12-27T14:22:42.807Z,76.80
2022-12-27T14:25:53.302Z,77.20
2022-12-27T14:28:59.692Z,78.30
2022-12-27T14:32:32.106Z,77.90
2022-12-27T14:35:23.455Z,78.20
2022-12-27T14:38:20.071Z,78.40
2022-12-27T14:41:18.573Z,78.50
2022-12-27T14:44:23.507Z,79.10
2022-12-27T14:47:28.957Z,79.80
2022-12-27T14:50:40.332Z,80.80
2022-12-27T14:53:51.690Z,81.00
2022-12-27T14:56:33.832Z,80.50
2022-12-27T14:59:25.716Z,81.10
2022-12-27T15:02:03.084Z,82.10
2022-12-27T15:04:53.957Z,82.70
2022-12-27T15:07:38.311Z,83.50
2022-12-27T15:10:16.393Z,84.20
2022-12-27T15:12:56.460Z,84.90
2022-12-27T15:15:40.287Z,85.30
2022-12-27T15:18:39.222Z,85.80
2022-12-27T15:21:41.293Z,85.90
2022-12-27T15:24:26.265Z,86.00
2022-12-27T15:27:04.460Z,85.50
2022-12-27T15:29:45.473Z,85.10
2022-12-27T15:32:26.073Z,85.40
2022-12-27T15:35:11.473Z,85.80
2022-12-27T15:37:55.775Z,85.20
2022-12-27T15:40:30.048Z,85.50
2022-12-27T15:43:05.511Z,84.90
2022-12-27T15:45:46.293Z,85.50
2022-12-27T15:48:37.979Z,85.80
2022-12-27T15:51:15.150Z,87.00
2022-12-27T15:54:17.234Z,88.00
2022-12-27T15:56:54.514Z,88.50
2022-12-27T15:59:45.542Z,88.90
2022-12-27T16:02:29.969Z,89.10
2022-12-27T16:05:03.201Z,89.10
2022-12-27T16:07:48.768Z,89.60
2022-12-27T16:10:47.865Z,90.00
2022-12-27T16:13:42.288Z,90.20
2022-12-27T16:16:40.079Z,90.50
2022-12-27T16:19:40.108Z,90.80
2022-12-27T16:22:26.113Z,91.20
2022-12-27T16:24:54.575Z,91.50
2022-12-27T16:27:30.164Z,91.70
2022-12-27T16:29:59.180Z,91.80
2022-12-27T16:32:29.171Z,92.00
2022-12-27T16:35:16.464Z,92.20
2022-12-27T16:37:52.905Z,92.40
2022-12-27T16:40:49.635Z,92.50
2022-12-27T16:43:45.796Z,92.80
2022-12-27T16:46:30.463Z,93.20
2022-12-27T16:49:33.179Z,93.30
2022-12-27T16:52:19.616Z,93.40
2022-12-27T16:54:55.709Z,93.40
2022-12-27T16:57:42.070Z,93.50
2022-12-27T17:00:36.634Z,93.60
2022-12-27T17:03:47.205Z,93.80
2022-12-27T17:06:53.667Z,94.30
2022-12-27T17:09:45.590Z,94.60
2022-12-27T17:12:24.548Z,94.90
2022-12-27T17:15:04.611Z,94.90
2022-12-27T17:17:33.031Z,95.00
2022-12-27T17:20:03.946Z,95.10
2022-12-27T17:22:35.368Z,95.00
2022-12-27T17:25:05.792Z,95.00
2022-12-27T17:27:53.954Z,95.00
2022-12-27T17:30:23.378Z,95.10
2022-12-27T17:33:15.421Z,95.20
2022-12-27T17:36:09.911Z,95.30
2022-12-27T17:38:50.924Z,95.40
2022-12-27T17:41:51.253Z,95.50
2022-12-27T17:44:39.710Z,95.80
2022-12-27T17:47:44.340Z,95.80
2022-12-27T17:50:17.604Z,95.70
2022-12-27T17:53:21.408Z,95.60
2022-12-27T17:56:19.608Z,95.70
2022-12-27T17:58:48.966Z,95.80
2022-12-27T18:01:17.346Z,96.00
2022-12-27T18:03:48.355Z,96.10
2022-12-27T18:06:20.085Z,96.30
2022-12-27T18:08:49.855Z,96.40
2022-12-27T18:11:23.442Z,96.40
2022-12-27T18:13:58.998Z,96.50
2022-12-27T18:16:34.529Z,96.50
2022-12-27T18:19:03.178Z,96.50
2022-12-27T18:21:32.071Z,96.70
2022-12-27T18:24:00.319Z,96.90
2022-12-27T18:26:38.912Z,97.00
2022-12-27T18:29:12.806Z,97.10
2022-12-27T18:31:49.188Z,97.10
2022-12-27T18:34:25.620Z,97.30
2022-12-27T18:36:59.887Z,97.40
2022-12-27T18:39:32.541Z,97.60
2022-12-27T18:42:03.625Z,97.60
2022-12-27T18:44:43.658Z,97.70
2022-12-27T18:47:18.800Z,97.60
2022-12-27T18:49:53.634Z,97.80
2022-12-27T18:52:25.650Z,97.90
2022-12-27T18:54:54.841Z,98.00
2022-12-27T18:57:36.384Z,98.10
2022-12-27T19:00:16.630Z,98.20
2022-12-27T19:02:45.074Z,98.30
2022-12-27T19:05:27.520Z,98.40
2022-12-27T19:08:00.739Z,98.60
2022-12-27T19:10:30.448Z,98.60
2022-12-27T19:12:59.027Z,98.80
2022-12-27T19:15:36.740Z,98.90
2022-12-27T19:18:07.983Z,99.00
2022-12-27T19:20:37.683Z,98.90
2022-12-27T19:23:08.689Z,98.90
2022-12-27T19:25:38.279Z,98.90
2022-12-27T19:28:25.608Z,99.10
2022-12-27T19:31:16.356Z,99.10
2022-12-27T19:33:47.527Z,99.20
2022-12-27T19:36:16.060Z,99.30
2022-12-27T19:38:48.045Z,99.50
2022-12-27T19:41:16.481Z,99.60
2022-12-27T19:43:46.744Z,99.60
2022-12-27T19:46:19.022Z,99.60
2022-12-27T19:49:01.085Z,99.90
2022-12-27T19:51:37.281Z,99.90
2022-12-27T19:54:08.220Z,99.90
2022-12-27T19:56:36.425Z,99.90
2022-12-27T19:59:04.523Z,99.90
2022-12-27T20:01:34.933Z,99.90
2022-12-27T20:04:03.080Z,99.90
2022-12-27T20:06:31.045Z,99.90
2022-12-27T20:08:59.141Z,99.90
2022-12-27T20:11:27.880Z,99.90
2022-12-27T20:13:56.018Z,99.90
2022-12-27T20:16:24.367Z,99.90
2022-12-27T20:18:53.865Z,99.90
2022-12-27T20:21:22.681Z,99.90
2022-12-27T20:23:51.242Z,99.90
2022-12-27T20:26:22.718Z,99.90
2022-12-27T20:28:51.358Z,99.90
2022-12-27T20:31:21.452Z,99.90
2022-12-27T20:33:54.150Z,99.90
2022-12-27T20:36:22.680Z,99.90
2022-12-27T20:38:51.381Z,99.90
2022-12-27T20:41:21.555Z,99.90
2022-12-27T20:43:54.287Z,99.90
2022-12-27T20:46:22.461Z,99.90
2022-12-27T20:48:50.744Z,99.90
2022-12-27T20:51:23.069Z,99.90
2022-12-27T20:53:56.626Z,99.90
2022-12-27T20:56:25.720Z,99.90
2022-12-27T20:58:54.299Z,99.90
2022-12-27T21:01:24.079Z,99.90
2022-12-27T21:03:52.696Z,99.90
2022-12-27T21:06:27.657Z,99.90
2022-12-27T21:08:58.003Z,99.90
2022-12-27T21:11:29.017Z,99.90
2022-12-27T21:13:57.228Z,99.90
2022-12-27T21:16:27.374Z,99.90
2022-12-27T21:18:56.153Z,99.90
2022-12-27T21:21:28.634Z,99.90
2022-12-27T21:23:57.949Z,99.90
2022-12-27T21:26:28.681Z,99.90
2022-12-27T21:28:57.579Z,99.90
2022-12-27T21:31:26.242Z,99.90
2022-12-27T21:33:54.723Z,99.90
2022-12-27T21:36:25.910Z,99.90
2022-12-27T21:38:55.559Z,99.90
2022-12-27T21:41:24.957Z,99.90
2022-12-27T21:43:53.792Z,99.90
2022-12-27T21:46:23.751Z,99.90
2022-12-27T21:48:56.690Z,99.90
2022-12-27T21:51:27.712Z,99.90
2022-12-27T21:53:56.527Z,99.90
2022-12-27T21:56:25.148Z,99.90
2022-12-27T21:58:55.457Z,99.90
2022-12-27T22:01:25.684Z,99.90
2022-12-27T22:03:55.839Z,99.90
2022-12-27T22:06:27.910Z,99.90
2022-12-27T22:08:59.007Z,99.90
2022-12-27T22:11:28.416Z,99.90
2022-12-27T22:13:57.150Z,99.90
2022-12-27T22:16:27.488Z,99.90
2022-12-27T22:18:56.920Z,99.90
2022-12-27T22:21:28.678Z,99.90
2022-12-27T22:23:58.838Z,99.90
2022-12-27T22:26:29.403Z,99.90
2022-12-27T22:28:57.924Z,99.90
2022-12-27T22:31:30.230Z,99.90
2022-12-27T22:33:58.958Z,99.90
2022-12-27T22:36:29.959Z,99.90
2022-12-27T22:38:59.326Z,99.90
2022-12-27T22:41:29.620Z,99.90
2022-12-27T22:44:00.122Z,99.90
2022-12-27T22:46:39.303Z,99.90
2022-12-27T22:49:17.890Z,99.90
2022-12-27T22:51:47.547Z,99.90
2022-12-27T22:54:15.781Z,99.90
2022-12-27T22:56:44.223Z,99.90
2022-12-27T22:59:14.582Z,99.90
2022-12-27T23:01:45.360Z,99.90
2022-12-27T23:04:14.987Z,99.90
2022-12-27T23:06:45.294Z,99.90
2022-12-27T23:09:15.131Z,99.90
2022-12-27T23:11:43.519Z,99.90
2022-12-27T23:14:13.851Z,99.90
2022-12-27T23:16:45.073Z,99.90
2022-12-27T23:19:14.080Z,99.90
2022-12-27T23:21:42.397Z,99.90
2022-12-27T23:24:11.639Z,99.90
2022-12-27T23:26:41.976Z,99.90
2022-12-27T23:29:12.763Z,99.90
2022-12-27T23:31:55.385Z,99.90
2022-12-27T23:34:28.149Z,99.90
2022-12-27T23:36:57.586Z,99.90
2022-12-27T23:39:25.998Z,99.90
2022-12-27T23:41:55.680Z,99.90
2022-12-27T23:44:33.485Z,99.90
2022-12-27T23:47:05.410Z,99.90
2022-12-27T23:49:33.942Z,99.90
2022-12-27T23:52:03.350Z,99.90
2022-12-27T23:54:31.674Z,99.90
2022-12-27T23:57:22.468Z,99.90
2022-12-27T23:59:51.225Z,99.90
